Time;durP1;ratioP1;P1;durP2;ratioP2;P2;SDS_P1;SDS_P2;PMS_P1;PMS_P2;Temp;Humidity;BMP_temperature;BMP_pressure;BME280_temperature;BME280_humidity;BME280_pressure;Samples;Min_cycle;Max_cycle;Signal;HPM_P1;HPM_P2
2023/02/14 00:01:52;;;;;;;14.80;5.80;;;;;;;-0.17;100.00;100877.75;107036;1275;23856;-73
2023/02/14 00:04:20;;;;;;;13.90;6.50;;;;;;;-0.17;100.00;100877.89;106324;1274;1003245;-71
2023/02/14 00:06:51;;;;;;;13.30;6.00;;;;;;;-0.17;100.00;100879.52;106977;1275;23821;-72
2023/02/14 00:09:19;;;;;;;15.40;5.80;;;;;;;-0.17;100.00;100874.58;106994;1275;22541;-72
2023/02/14 00:11:48;;;;;;;13.70;5.50;;;;;;;-0.18;100.00;100871.05;106997;1274;22524;-75
2023/02/14 00:17:04;;;;;;;16.50;6.70;;;;;;;-0.18;100.00;100862.39;106923;1274;24205;-72
2023/02/14 00:19:34;;;;;;;13.60;5.50;;;;;;;-0.17;100.00;100860.38;107060;1274;25255;-72
2023/02/14 00:22:03;;;;;;;16.20;6.20;;;;;;;-0.17;100.00;100858.27;107032;1274;25347;-72
2023/02/14 00:24:32;;;;;;;14.20;6.50;;;;;;;-0.18;100.00;100856.34;106847;1274;22547;-72
2023/02/14 00:27:01;;;;;;;14.20;6.40;;;;;;;-0.18;100.00;100859.88;107041;1275;25876;-72
2023/02/14 00:29:31;;;;;;;12.20;5.30;;;;;;;-0.17;100.00;100862.48;106989;1274;25574;-72
2023/02/14 00:32:01;;;;;;;13.80;5.90;;;;;;;-0.16;100.00;100869.52;107054;1274;26581;-73
2023/02/14 00:34:32;;;;;;;12.80;5.60;;;;;;;-0.15;100.00;100877.25;106960;1275;25872;-73
2023/02/14 00:37:02;;;;;;;18.20;6.90;;;;;;;-0.13;100.00;100877.16;106660;1275;25252;-73
2023/02/14 00:39:31;;;;;;;14.80;5.90;;;;;;;-0.12;100.00;100872.70;107082;1274;24222;-72
2023/02/14 00:42:00;;;;;;;16.70;6.60;;;;;;;-0.12;100.00;100871.95;106908;1275;25432;-74
2023/02/14 00:44:29;;;;;;;16.80;6.70;;;;;;;-0.09;100.00;100876.45;106883;1274;25249;-73
2023/02/14 00:46:58;;;;;;;18.10;6.70;;;;;;;-0.09;100.00;100871.25;106911;1274;26704;-71
2023/02/14 00:49:26;;;;;;;16.60;7.10;;;;;;;-0.07;100.00;100872.41;107004;1275;26600;-72
2023/02/14 00:51:55;;;;;;;15.60;6.40;;;;;;;-0.06;100.00;100867.05;107067;1274;25821;-71
2023/02/14 00:54:24;;;;;;;18.00;6.60;;;;;;;-0.07;100.00;100868.31;106957;1275;25429;-73
2023/02/14 00:56:53;;;;;;;16.30;6.60;;;;;;;-0.08;100.00;100873.69;107024;1275;24254;-72
2023/02/14 00:59:22;;;;;;;14.50;6.40;;;;;;;-0.08;100.00;100874.94;107057;1275;26619;-73
2023/02/14 01:01:50;;;;;;;14.50;6.60;;;;;;;-0.08;100.00;100873.68;106332;1275;1002874;-72
2023/02/14 01:04:19;;;;;;;19.80;6.70;;;;;;;-0.08;100.00;100876.20;107008;1275;24034;-73
2023/02/14 01:06:48;;;;;;;15.70;6.40;;;;;;;-0.09;100.00;100876.41;106998;1275;25444;-72
2023/02/14 01:09:17;;;;;;;14.90;6.20;;;;;;;-0.08;100.00;100874.94;107063;1275;25297;-72
2023/02/14 01:11:45;;;;;;;14.90;5.80;;;;;;;-0.09;100.00;100871.98;107082;1274;26622;-71
2023/02/14 01:14:15;;;;;;;16.60;6.90;;;;;;;-0.10;100.00;100864.58;107013;1275;25597;-72
2023/02/14 01:16:43;;;;;;;16.20;6.80;;;;;;;-0.10;100.00;100868.14;106832;1274;25282;-72
2023/02/14 01:19:12;;;;;;;15.90;6.90;;;;;;;-0.11;100.00;100865.52;107088;1274;26513;-72
2023/02/14 01:21:43;;;;;;;17.60;6.80;;;;;;;-0.12;100.00;100862.95;107010;1274;22623;-72
2023/02/14 01:24:12;;;;;;;14.90;5.60;;;;;;;-0.12;100.00;100865.24;106963;1274;26513;-72
2023/02/14 01:26:43;;;;;;;14.50;6.40;;;;;;;-0.12;100.00;100866.84;106901;1274;25263;-72
2023/02/14 01:29:12;;;;;;;14.80;6.50;;;;;;;-0.12;100.00;100871.47;107047;1274;26507;-74
2023/02/14 01:31:41;;;;;;;15.90;7.00;;;;;;;-0.12;100.00;100877.12;107008;1274;25504;-72
2023/02/14 01:34:10;;;;;;;19.20;7.00;;;;;;;-0.11;100.00;100876.70;107015;1275;22537;-73
2023/02/14 01:36:39;;;;;;;14.50;6.80;;;;;;;-0.10;100.00;100875.08;106906;1274;26521;-73
2023/02/14 01:39:11;;;;;;;12.10;6.00;;;;;;;-0.10;100.00;100875.07;106881;1275;25508;-71
2023/02/14 01:41:41;;;;;;;17.80;7.00;;;;;;;-0.10;100.00;100873.45;106301;1260;1003082;-72
2023/02/14 01:44:13;;;;;;;16.40;6.60;;;;;;;-0.10;100.00;100879.12;107041;1274;22535;-74
2023/02/14 01:46:42;;;;;;;14.70;6.30;;;;;;;-0.11;100.00;100880.73;106884;1274;22530;-72
2023/02/14 01:49:25;;;;;;;16.60;6.80;;;;;;;-0.10;100.00;100887.27;106907;1274;22527;-72
2023/02/14 01:51:58;;;;;;;19.70;6.70;;;;;;;-0.09;100.00;100881.20;107030;1274;22546;-72
2023/02/14 01:54:32;;;;;;;19.60;7.00;;;;;;;-0.08;100.00;100880.62;106901;1274;22520;-72
2023/02/14 01:57:03;;;;;;;15.30;5.70;;;;;;;-0.07;100.00;100876.32;106850;1274;26050;-71
2023/02/14 01:59:35;;;;;;;17.00;6.90;;;;;;;-0.08;100.00;100874.74;106858;1274;25488;-73
2023/02/14 02:02:04;;;;;;;17.50;7.40;;;;;;;-0.08;100.00;100872.45;107003;1274;24787;-72
2023/02/14 02:04:36;;;;;;;15.40;5.90;;;;;;;-0.07;100.00;100866.58;107143;1275;22645;-71
2023/02/14 02:07:07;;;;;;;13.40;5.50;;;;;;;-0.08;100.00;100862.20;106999;1275;24295;-72
2023/02/14 02:09:56;;;;;;;16.40;7.00;;;;;;;-0.09;100.00;100859.55;106910;1275;25452;-72
2023/02/14 02:12:24;;;;;;;16.00;6.70;;;;;;;-0.08;100.00;100849.41;106081;1266;1003035;-71
2023/02/14 02:14:54;;;;;;;17.10;7.00;;;;;;;-0.08;100.00;100842.84;106838;1251;22533;-70
2023/02/14 02:17:34;;;;;;;16.20;6.80;;;;;;;-0.08;100.00;100833.63;106363;1274;1002969;-73
2023/02/14 02:20:41;;;;;;;17.20;7.10;;;;;;;-0.06;100.00;100825.75;107052;1275;24206;-71
2023/02/14 02:23:29;;;;;;;16.00;7.10;;;;;;;-0.05;100.00;100811.17;106808;1274;220640;-72
2023/02/14 02:26:34;;;;;;;15.80;6.80;;;;;;;-0.06;100.00;100808.20;107083;1275;25304;-72
2023/02/14 02:29:41;;;;;;;15.80;6.40;;;;;;;-0.07;100.00;100797.80;106999;1274;24219;-71
2023/02/14 02:32:35;;;;;;;14.50;6.10;;;;;;;-0.08;100.00;100785.79;107034;1275;23884;-73
2023/02/14 02:35:23;;;;;;;14.70;6.20;;;;;;;-0.08;100.00;100784.71;106963;1275;25300;-73
2023/02/14 02:38:01;;;;;;;16.00;6.80;;;;;;;-0.08;100.00;100773.38;106946;1274;22534;-72
2023/02/14 02:40:48;;;;;;;15.50;6.50;;;;;;;-0.08;100.00;100769.88;106967;1274;25298;-72
2023/02/14 02:43:41;;;;;;;15.20;6.60;;;;;;;-0.07;100.00;100764.66;106913;1275;25298;-71
2023/02/14 02:49:13;;;;;;;17.00;6.70;;;;;;;-0.09;100.00;100737.80;107054;1275;25300;-71
2023/02/14 02:54:38;;;;;;;16.20;6.30;;;;;;;-0.10;100.00;100715.86;106997;1275;22530;-72
2023/02/14 02:57:13;;;;;;;15.50;6.40;;;;;;;-0.09;100.00;100713.90;107012;1275;25439;-71
2023/02/14 02:59:41;;;;;;;18.40;7.10;;;;;;;-0.10;100.00;100685.95;106978;1275;22532;-71
2023/02/14 03:02:28;;;;;;;13.00;6.20;;;;;;;-0.10;100.00;100672.13;106828;1275;22526;-72
2023/02/14 03:04:58;;;;;;;13.40;6.10;;;;;;;-0.10;100.00;100649.04;106229;1275;1002855;-71
2023/02/14 03:07:33;;;;;;;15.90;6.50;;;;;;;-0.08;100.00;100640.66;106882;1275;22656;-72
2023/02/14 03:10:07;;;;;;;15.30;6.50;;;;;;;-0.07;100.00;100628.88;106987;1274;26694;-71
2023/02/14 03:12:48;;;;;;;13.70;6.90;;;;;;;-0.07;100.00;100611.13;106916;1274;25445;-73
2023/02/14 03:15:26;;;;;;;14.20;5.90;;;;;;;-0.06;100.00;100597.11;107020;1274;22520;-71
2023/02/14 03:17:58;;;;;;;14.00;5.50;;;;;;;-0.06;100.00;100590.73;106890;1274;25310;-72
2023/02/14 03:20:46;;;;;;;16.10;6.70;;;;;;;-0.05;100.00;100575.41;106878;1274;25297;-73
2023/02/14 03:23:26;;;;;;;14.70;6.10;;;;;;;-0.04;100.00;100541.27;107062;1274;25310;-71
2023/02/14 03:26:26;;;;;;;16.70;6.80;;;;;;;-0.03;100.00;100524.22;107054;1274;22534;-72
2023/02/14 03:29:00;;;;;;;15.20;6.00;;;;;;;-0.02;100.00;100504.50;106957;1274;25962;-71
2023/02/14 03:31:42;;;;;;;18.70;7.00;;;;;;;-0.01;100.00;100506.92;106839;1274;26539;-72
2023/02/14 03:34:14;;;;;;;14.20;6.00;;;;;;;0.02;100.00;100488.17;106852;1275;24617;-73
2023/02/14 03:37:08;;;;;;;15.70;6.00;;;;;;;0.01;100.00;100486.27;107035;1275;23657;-72
2023/02/14 03:40:01;;;;;;;15.60;6.40;;;;;;;0.02;100.00;100446.65;106777;1275;22556;-72
2023/02/14 03:42:35;;;;;;;15.10;6.40;;;;;;;0.04;100.00;100431.51;106948;1274;22984;-72
2023/02/14 03:45:07;;;;;;;15.00;6.20;;;;;;;0.04;100.00;100432.00;106901;1274;22625;-71
2023/02/14 03:47:36;;;;;;;19.20;7.40;;;;;;;0.06;100.00;100440.27;107019;1274;25256;-72
2023/02/14 03:50:09;;;;;;;17.60;7.00;;;;;;;0.06;100.00;100444.11;106800;1275;26568;-72
2023/02/14 03:52:37;;;;;;;17.10;7.30;;;;;;;0.06;100.00;100421.11;107084;1274;22539;-72
2023/02/14 03:55:07;;;;;;;15.50;7.00;;;;;;;0.06;100.00;100413.30;107027;1274;25303;-72
2023/02/14 03:57:47;;;;;;;18.20;7.70;;;;;;;0.06;100.00;100392.34;106921;1275;26541;-72
2023/02/14 04:00:17;;;;;;;17.40;6.80;;;;;;;0.07;100.00;100368.70;107008;1274;25431;-72
2023/02/14 04:02:53;;;;;;;16.60;6.90;;;;;;;0.08;100.00;100347.40;106224;1274;1003100;-72
2023/02/14 04:05:24;;;;;;;17.70;7.30;;;;;;;0.08;100.00;100320.11;106994;1274;23945;-72
2023/02/14 04:07:56;;;;;;;16.10;7.30;;;;;;;0.08;100.00;100303.10;107091;1275;22534;-73
2023/02/14 04:10:25;;;;;;;17.70;7.80;;;;;;;0.07;100.00;100287.86;106960;1274;22598;-72
2023/02/14 04:12:55;;;;;;;17.40;7.40;;;;;;;0.09;100.00;100264.89;106937;1274;25434;-73
2023/02/14 04:15:23;;;;;;;20.80;8.50;;;;;;;0.11;100.00;100258.05;107081;1274;25430;-71
2023/02/14 04:20:42;;;;;;;18.50;7.60;;;;;;;0.13;100.00;100211.82;106973;1274;22601;-72
2023/02/14 04:23:13;;;;;;;20.80;7.80;;;;;;;0.14;100.00;100212.62;106967;1274;25236;-71
2023/02/14 04:25:44;;;;;;;20.80;8.40;;;;;;;0.15;100.00;100199.80;107065;1274;26637;-72
2023/02/14 04:28:13;;;;;;;18.80;7.30;;;;;;;0.16;100.00;100187.45;107107;1274;25447;-72
2023/02/14 04:30:42;;;;;;;18.20;7.70;;;;;;;0.17;100.00;100170.55;106886;1274;26595;-71
2023/02/14 04:33:11;;;;;;;20.70;8.70;;;;;;;0.18;100.00;100156.52;107006;1275;25411;-72
2023/02/14 04:35:39;;;;;;;20.40;8.30;;;;;;;0.18;100.00;100147.97;107044;1275;22544;-71
2023/02/14 04:38:08;;;;;;;18.00;7.80;;;;;;;0.20;100.00;100139.75;106892;1275;22543;-71
2023/02/14 04:40:36;;;;;;;21.00;8.10;;;;;;;0.20;100.00;100128.36;106990;1275;23853;-72
2023/02/14 04:43:07;;;;;;;21.60;8.40;;;;;;;0.22;100.00;100119.95;106977;1275;23983;-71
2023/02/14 04:45:37;;;;;;;21.50;8.70;;;;;;;0.23;100.00;100104.98;106960;1275;25430;-71
2023/02/14 04:48:06;;;;;;;18.10;8.10;;;;;;;0.24;100.00;100099.71;106987;1274;25358;-72
2023/02/14 04:50:34;;;;;;;20.40;8.50;;;;;;;0.25;100.00;100082.30;106931;1275;22528;-71
2023/02/14 04:53:03;;;;;;;25.60;10.40;;;;;;;0.26;100.00;100074.09;106967;1274;25674;-74
2023/02/14 04:55:32;;;;;;;23.50;10.50;;;;;;;0.26;100.00;100054.90;106982;1275;25314;-72
2023/02/14 04:58:00;;;;;;;25.50;10.60;;;;;;;0.27;100.00;100040.86;106881;1275;26649;-70
2023/02/14 05:00:29;;;;;;;21.80;9.70;;;;;;;0.26;100.00;100025.66;107075;1275;25815;-72
2023/02/14 05:02:58;;;;;;;21.00;10.20;;;;;;;0.25;100.00;100004.48;107031;1275;25469;-71
2023/02/14 05:05:26;;;;;;;23.50;10.10;;;;;;;0.23;100.00;99988.67;106936;1275;25432;-72
2023/02/14 05:07:55;;;;;;;22.80;11.00;;;;;;;0.21;100.00;99979.20;106989;1274;25564;-71
2023/02/14 05:10:26;;;;;;;24.80;11.60;;;;;;;0.20;100.00;99953.04;107067;1274;25361;-72
2023/02/14 05:12:54;;;;;;;22.80;10.40;;;;;;;0.18;100.00;99930.99;106940;1274;24013;-71
2023/02/14 05:15:23;;;;;;;28.50;12.30;;;;;;;0.18;100.00;99911.36;106984;1275;25425;-71
2023/02/14 05:17:52;;;;;;;28.90;12.20;;;;;;;0.17;100.00;99902.02;107402;1275;24302;-71
2023/02/14 05:20:20;;;;;;;28.60;12.10;;;;;;;0.16;100.00;99893.20;107597;1274;26599;-71
2023/02/14 05:22:49;;;;;;;26.70;12.70;;;;;;;0.15;100.00;99887.06;107458;1275;22528;-70
2023/02/14 05:25:18;;;;;;;28.90;14.30;;;;;;;0.14;100.00;99873.30;107509;1274;22602;-71
2023/02/14 05:27:47;;;;;;;32.00;13.70;;;;;;;0.12;100.00;99854.84;107619;1275;25436;-72
2023/02/14 05:30:17;;;;;;;26.40;12.60;;;;;;;0.09;100.00;99845.83;107806;1275;25457;-71
2023/02/14 05:32:46;;;;;;;38.10;19.20;;;;;;;0.07;100.00;99825.61;107732;1274;26485;-72
2023/02/14 05:35:15;;;;;;;38.30;20.80;;;;;;;0.04;100.00;99813.81;107835;1275;22551;-72
2023/02/14 05:37:43;;;;;;;35.00;16.60;;;;;;;0.01;100.00;99805.87;107713;1274;24289;-72
2023/02/14 05:40:14;;;;;;;32.90;16.70;;;;;;;-0.02;100.00;99798.06;106995;1274;1003379;-72
2023/02/14 05:42:42;;;;;;;33.70;18.10;;;;;;;-0.05;100.00;99785.81;107757;1274;22572;-72
2023/02/14 05:45:13;;;;;;;33.70;16.20;;;;;;;-0.06;100.00;99774.40;107481;1275;24212;-72
2023/02/14 05:47:43;;;;;;;30.00;15.50;;;;;;;-0.07;100.00;99767.20;107771;1274;25415;-71
2023/02/14 05:50:12;;;;;;;31.40;16.10;;;;;;;-0.08;100.00;99760.20;107503;1274;23282;-71
2023/02/14 05:52:44;;;;;;;31.00;15.50;;;;;;;-0.10;100.00;99750.79;107372;1274;26600;-71
2023/02/14 05:55:12;;;;;;;50.60;28.80;;;;;;;-0.11;100.00;99740.05;107457;1274;26639;-72
2023/02/14 05:57:41;;;;;;;37.20;19.30;;;;;;;-0.12;100.00;99734.46;107349;1270;22476;-71
2023/02/14 06:00:10;;;;;;;34.10;18.70;;;;;;;-0.13;100.00;99726.41;107317;1275;26500;-72
2023/02/14 06:02:39;;;;;;;33.80;18.90;;;;;;;-0.14;100.00;99723.30;107302;1274;24305;-70
2023/02/14 06:05:08;;;;;;;34.00;17.50;;;;;;;-0.15;100.00;99719.98;106569;1275;1003410;-72
2023/02/14 06:07:38;;;;;;;29.40;14.20;;;;;;;-0.14;100.00;99717.92;107276;1275;25387;-70
2023/02/14 06:10:08;;;;;;;31.70;15.90;;;;;;;-0.14;100.00;99714.45;107596;1274;22518;-72
2023/02/14 06:12:37;;;;;;;31.70;18.50;;;;;;;-0.14;100.00;99713.14;107392;1275;24224;-71
2023/02/14 06:15:08;;;;;;;26.70;13.30;;;;;;;-0.14;100.00;99706.77;107222;1267;25879;-70
2023/02/14 06:17:36;;;;;;;23.50;11.10;;;;;;;-0.14;100.00;99704.99;107312;1275;25438;-71
2023/02/14 06:20:08;;;;;;;22.00;10.70;;;;;;;-0.13;100.00;99709.73;107168;1271;26756;-70
2023/02/14 06:22:38;;;;;;;26.60;10.90;;;;;;;-0.12;100.00;99699.77;107135;1275;22619;-70
2023/02/14 06:25:07;;;;;;;21.90;9.90;;;;;;;-0.12;100.00;99691.08;107175;1269;22521;-70
2023/02/14 06:27:37;;;;;;;21.60;9.50;;;;;;;-0.12;100.00;99686.64;107191;1275;25936;-70
2023/02/14 06:30:10;;;;;;;23.50;10.30;;;;;;;-0.13;100.00;99680.83;107062;1275;24043;-70
2023/02/14 06:32:39;;;;;;;18.10;8.60;;;;;;;-0.14;100.00;99672.62;107254;1271;23151;-72
2023/02/14 06:35:07;;;;;;;19.00;8.40;;;;;;;-0.15;100.00;99665.27;107555;1272;22520;-72
2023/02/14 06:37:39;;;;;;;21.10;8.90;;;;;;;-0.17;100.00;99659.35;107552;1274;25561;-71
2023/02/14 06:40:09;;;;;;;22.40;10.00;;;;;;;-0.18;100.00;99658.73;107319;1264;22520;-69
2023/02/14 06:42:39;;;;;;;21.20;9.90;;;;;;;-0.19;100.00;99649.23;107032;1275;25475;-71
2023/02/14 06:45:08;;;;;;;21.50;10.60;;;;;;;-0.21;100.00;99643.86;106964;1272;23938;-70
2023/02/14 06:47:37;;;;;;;22.70;9.90;;;;;;;-0.22;100.00;99633.15;106927;1275;22627;-69
2023/02/14 06:50:06;;;;;;;23.30;9.60;;;;;;;-0.23;100.00;99626.80;107048;1275;26537;-69
2023/02/14 06:52:35;;;;;;;27.40;12.30;;;;;;;-0.24;100.00;99621.02;107032;1251;22533;-66
2023/02/14 06:55:04;;;;;;;23.60;13.20;;;;;;;-0.25;100.00;99619.66;107080;1275;23723;-66
2023/02/14 06:57:34;;;;;;;22.50;12.80;;;;;;;-0.24;100.00;99609.90;107043;1275;25361;-66
2023/02/14 07:00:04;;;;;;;18.60;10.30;;;;;;;-0.24;100.00;99605.29;107056;1275;22529;-72
2023/02/14 07:02:33;;;;;;;10.70;6.40;;;;;;;-0.22;100.00;99602.83;107119;1275;22751;-74
2023/02/14 07:05:02;;;;;;;14.60;7.30;;;;;;;-0.21;100.00;99603.82;106869;1275;25311;-70
2023/02/14 07:07:30;;;;;;;14.80;7.70;;;;;;;-0.21;100.00;99608.64;107060;1275;25310;-72
2023/02/14 07:09:59;;;;;;;12.00;6.10;;;;;;;-0.22;100.00;99603.84;106974;1275;25506;-68
2023/02/14 07:12:28;;;;;;;13.90;7.10;;;;;;;-0.22;100.00;99597.13;106933;1275;25432;-72
2023/02/14 07:14:59;;;;;;;15.50;7.60;;;;;;;-0.23;100.00;99593.33;107118;1275;22480;-72
2023/02/14 07:17:28;;;;;;;16.40;9.10;;;;;;;-0.24;100.00;99591.33;106976;1275;25385;-70
2023/02/14 07:19:57;;;;;;;14.20;7.20;;;;;;;-0.25;100.00;99592.26;107020;1275;22529;-70
2023/02/14 07:22:26;;;;;;;21.50;9.80;;;;;;;-0.25;100.00;99594.20;106923;1275;26516;-71
2023/02/14 07:24:58;;;;;;;11.20;5.90;;;;;;;-0.26;100.00;99594.27;106940;1268;25492;-70
2023/02/14 07:27:26;;;;;;;13.50;6.90;;;;;;;-0.26;100.00;99596.73;107120;1275;24216;-70
2023/02/14 07:29:55;;;;;;;8.70;5.80;;;;;;;-0.25;100.00;99595.09;107132;1269;25337;-70
2023/02/14 07:32:27;;;;;;;12.90;7.40;;;;;;;-0.25;100.00;99588.67;106853;1275;25305;-71
2023/02/14 07:34:56;;;;;;;21.10;11.50;;;;;;;-0.25;100.00;99586.36;107088;1268;22545;-72
2023/02/14 07:37:24;;;;;;;19.00;10.60;;;;;;;-0.24;100.00;99591.13;107027;1266;22524;-72
2023/02/14 07:39:53;;;;;;;31.50;15.80;;;;;;;-0.24;100.00;99583.11;107090;1274;26511;-72
2023/02/14 07:42:21;;;;;;;49.10;22.50;;;;;;;-0.23;100.00;99580.04;107041;1275;25438;-71
2023/02/14 07:44:50;;;;;;;23.50;14.50;;;;;;;-0.21;100.00;99576.55;106469;1274;1003611;-72
2023/02/14 07:47:19;;;;;;;22.40;12.00;;;;;;;-0.21;100.00;99569.82;106286;1275;1003758;-73
2023/02/14 07:49:48;;;;;;;15.90;9.70;;;;;;;-0.22;100.00;99567.23;107273;1275;23837;-72
2023/02/14 07:52:16;;;;;;;19.10;11.30;;;;;;;-0.22;100.00;99566.16;107141;1275;22531;-69
2023/02/14 07:54:46;;;;;;;23.40;10.80;;;;;;;-0.22;100.00;99560.14;107093;1274;25546;-69
2023/02/14 07:57:14;;;;;;;38.00;20.80;;;;;;;-0.21;100.00;99560.95;106381;1274;1003355;-69
2023/02/14 07:59:43;;;;;;;35.90;19.20;;;;;;;-0.20;100.00;99554.16;107111;1272;25432;-68
2023/02/14 08:02:13;;;;;;;18.60;10.50;;;;;;;-0.19;100.00;99551.91;107100;1274;25358;-68
2023/02/14 08:04:42;;;;;;;15.50;7.40;;;;;;;-0.16;100.00;99556.02;107047;1269;22531;-69
2023/02/14 08:07:10;;;;;;;19.30;7.60;;;;;;;-0.15;100.00;99549.33;107006;1274;22526;-68
2023/02/14 08:09:39;;;;;;;16.50;7.90;;;;;;;-0.14;100.00;99546.98;106792;1275;26605;-68
2023/02/14 08:16:03;;;;;;;12.30;6.40;;;;;;;-0.11;100.00;99533.66;107029;1274;25485;-68
2023/02/14 08:46:32;;;;;;;21.60;11.90;;;;;;;-0.22;100.00;100028.55;104018;1296;1003058;-70
2023/02/14 08:49:00;;;;;;;19.30;10.20;;;;;;;-0.26;100.00;100074.35;106006;1282;25610;-69
2023/02/14 08:51:28;;;;;;;23.70;12.80;;;;;;;-0.22;100.00;100357.55;106017;1288;25482;-70
2023/02/14 08:53:56;;;;;;;23.00;12.20;;;;;;;-0.17;100.00;100586.54;105806;1273;1003009;-66
2023/02/14 08:56:23;;;;;;;22.40;12.60;;;;;;;-0.11;100.00;100416.61;106647;1276;25441;-66
2023/02/14 08:58:52;;;;;;;22.60;10.40;;;;;;;-0.05;100.00;100144.57;106518;1272;250709;-66
2023/02/14 09:01:19;;;;;;;21.10;10.20;;;;;;;0.02;100.00;99937.96;106737;1276;24232;-70
2023/02/14 09:03:49;;;;;;;20.30;10.00;;;;;;;0.09;100.00;99801.18;106760;1276;25363;-67
2023/02/14 09:06:17;;;;;;;17.40;9.40;;;;;;;0.16;100.00;99720.91;106745;1270;22566;-73
2023/02/14 09:08:45;;;;;;;23.50;9.90;;;;;;;0.23;100.00;99655.55;106974;1277;25297;-71
2023/02/14 09:11:23;;;;;;;18.40;9.40;;;;;;;0.31;100.00;99606.52;106029;1276;1003024;-71
2023/02/14 09:35:44;;;;;;;17.80;9.30;;;;;;;1.29;100.00;99402.85;100904;1295;985787;-69
2023/02/14 09:38:12;;;;;;;11.30;5.90;;;;;;;1.35;100.00;99411.99;104143;1298;1003134;-73
2023/02/14 09:40:40;;;;;;;15.70;6.90;;;;;;;1.37;100.00;99424.48;105498;1293;25338;-73
2023/02/14 09:43:23;;;;;;;12.60;7.80;;;;;;;1.38;100.00;99428.95;104302;1294;1003030;-74
2023/02/14 09:45:53;;;;;;;18.30;9.00;;;;;;;1.40;100.00;99428.59;105462;1289;22808;-71
2023/02/14 09:48:33;;;;;;;25.90;10.50;;;;;;;1.40;100.00;99430.53;105532;1292;25375;-70
2023/02/14 09:51:05;;;;;;;15.10;7.40;;;;;;;1.41;100.00;99434.05;105516;1299;26686;-72
2023/02/14 09:53:35;;;;;;;15.10;7.60;;;;;;;1.43;100.00;99431.05;105425;1298;22978;-71
2023/02/14 09:56:07;;;;;;;16.00;8.30;;;;;;;1.50;100.00;99435.04;105158;1299;22545;-72
2023/02/14 09:58:42;;;;;;;20.30;9.30;;;;;;;1.61;100.00;99433.25;105287;1296;24923;-73
2023/02/14 10:01:12;;;;;;;42.80;22.00;;;;;;;1.80;100.00;99423.64;104960;1295;1003103;-71
2023/02/14 10:04:02;;;;;;;16.20;8.00;;;;;;;2.16;100.00;99420.96;105188;1290;25530;-70
2023/02/14 10:06:45;;;;;;;15.60;8.40;;;;;;;2.57;100.00;99417.56;105348;1292;26587;-72
2023/02/14 10:09:21;;;;;;;15.50;7.90;;;;;;;2.78;100.00;99411.24;105314;1297;25280;-71
2023/02/14 10:11:49;;;;;;;15.00;8.40;;;;;;;2.82;100.00;99411.96;105273;1299;26544;-75
2023/02/14 10:14:18;;;;;;;14.50;7.40;;;;;;;2.79;100.00;99413.16;105253;1292;25493;-72
2023/02/14 10:16:58;;;;;;;18.00;7.70;;;;;;;2.73;100.00;99406.55;104443;1292;1003454;-75
2023/02/14 10:19:38;;;;;;;12.70;7.00;;;;;;;2.69;100.00;99395.70;105577;1290;24359;-75
2023/02/14 10:22:13;;;;;;;16.40;6.60;;;;;;;2.66;100.00;99386.67;105885;1290;22552;-75
2023/02/14 10:25:03;;;;;;;14.80;7.00;;;;;;;2.66;100.00;99380.98;105807;1291;25335;-76
2023/02/14 10:27:34;;;;;;;9.50;5.30;;;;;;;2.74;100.00;99377.84;105510;1295;23905;-73
2023/02/14 10:30:15;;;;;;;25.20;12.00;;;;;;;2.86;100.00;99371.55;105815;1297;22571;-75
2023/02/14 10:32:50;;;;;;;17.70;9.70;;;;;;;3.02;100.00;99382.59;105373;1291;25388;-70
2023/02/14 10:35:21;;;;;;;15.10;7.50;;;;;;;3.14;100.00;99381.20;105328;1292;25350;-72
2023/02/14 10:38:25;;;;;;;14.00;15.20;;;;;;;3.20;100.00;99391.50;105404;1290;22724;-73
2023/02/14 10:41:09;;;;;;;12.10;6.80;;;;;;;3.24;100.00;99405.05;104855;1298;25465;-73
2023/02/14 10:43:45;;;;;;;12.80;7.00;;;;;;;3.27;100.00;99426.69;104264;1299;1002686;-71
2023/02/14 10:46:28;;;;;;;13.60;7.60;;;;;;;3.33;100.00;99443.94;105850;1295;22491;-75
2023/02/14 10:49:18;;;;;;;14.00;7.90;;;;;;;3.45;100.00;99457.45;106142;1292;23014;-74
2023/02/14 10:52:07;;;;;;;20.70;10.50;;;;;;;3.58;100.00;99476.39;105681;1290;22548;-70
2023/02/14 10:54:40;;;;;;;18.00;10.60;;;;;;;3.73;100.00;99494.52;105207;1298;22560;-68
2023/02/14 10:57:18;;;;;;;13.70;7.60;;;;;;;3.86;100.00;99527.91;105303;1297;22581;-71
2023/02/14 10:59:56;;;;;;;20.20;10.30;;;;;;;4.07;100.00;99556.69;105277;1297;25567;-72
2023/02/14 11:02:36;;;;;;;12.50;6.10;;;;;;;4.26;100.00;99583.64;105493;1297;24060;-68
2023/02/14 11:05:03;;;;;;;16.40;8.70;;;;;;;4.37;100.00;99613.08;105188;1298;25460;-69
2023/02/14 11:07:31;;;;;;;12.10;5.40;;;;;;;4.44;100.00;99644.08;105223;1298;22660;-70
2023/02/14 11:09:58;;;;;;;24.00;12.40;;;;;;;4.46;100.00;99674.90;104981;1297;26538;-69
2023/02/14 11:12:39;;;;;;;15.80;7.20;;;;;;;4.51;100.00;99705.40;104561;1298;1003903;-68
2023/02/14 11:15:18;;;;;;;18.20;8.60;;;;;;;4.55;100.00;99734.11;105178;1298;22775;-71
2023/02/14 11:17:46;;;;;;;13.70;7.00;;;;;;;4.72;100.00;99772.96;105471;1297;25365;-70
2023/02/14 11:20:29;;;;;;;17.70;9.10;;;;;;;4.85;100.00;99808.16;105530;1297;23997;-69
2023/02/14 11:22:56;;;;;;;18.60;10.60;;;;;;;4.93;100.00;99849.36;105352;1292;25439;-71
2023/02/14 11:25:28;;;;;;;18.60;8.20;;;;;;;4.95;100.00;99908.01;105353;1297;26538;-72
2023/02/14 11:28:01;;;;;;;;;;;;;;;4.76;100.00;99963.62;105221;1298;25478;-68
2023/02/14 11:30:33;;;;;;;19.30;8.30;;;;;;;4.52;100.00;100014.32;104756;1298;1003069;-70
2023/02/14 11:33:03;;;;;;;21.70;10.90;;;;;;;4.29;100.00;100058.93;105417;1298;26528;-72
2023/02/14 11:35:33;;;;;;;15.10;7.50;;;;;;;4.14;100.00;100100.48;105197;1299;25398;-72
2023/02/14 11:38:04;;;;;;;;;;;;;;;3.97;100.00;100128.81;105215;1297;25325;-70
2023/02/14 11:40:34;;;;;;;15.00;8.20;;;;;;;3.75;100.00;100159.67;104501;1298;1003635;-72
2023/02/14 11:43:13;;;;;;;18.00;8.70;;;;;;;3.53;100.00;100185.16;105389;1297;23331;-69
2023/02/14 11:45:42;;;;;;;20.00;10.20;;;;;;;3.42;100.00;100200.13;104489;1298;1002844;-68
2023/02/14 11:48:23;;;;;;;28.70;14.30;;;;;;;3.41;100.00;100215.85;105068;1297;25498;-68
2023/02/14 11:51:15;;;;;;;18.60;9.80;;;;;;;3.55;100.00;100212.63;105033;1299;25335;-71
2023/02/14 11:53:59;;;;;;;21.80;10.60;;;;;;;3.76;100.00;100220.79;105163;1298;25578;-74
2023/02/14 11:57:08;;;;;;;22.70;8.20;;;;;;;3.85;100.00;100221.29;105405;1291;25536;-71
2023/02/14 11:59:53;;;;;;;17.00;8.50;;;;;;;3.73;100.00;100211.71;105286;1291;25462;-72
2023/02/14 12:02:38;;;;;;;13.30;6.50;;;;;;;3.57;100.00;100229.90;105224;1296;22560;-72
2023/02/14 12:05:17;;;;;;;7.40;4.90;;;;;;;3.49;100.00;100237.53;105421;1299;22596;-73
2023/02/14 12:07:45;;;;;;;10.40;5.70;;;;;;;3.41;100.00;100246.69;105588;1298;25458;-74
2023/02/14 12:10:16;;;;;;;12.00;5.00;;;;;;;3.27;100.00;100262.79;105354;1292;26780;-75
2023/02/14 12:12:56;;;;;;;14.10;6.90;;;;;;;3.14;100.00;100270.19;104606;1296;1002576;-72
2023/02/14 12:15:35;;;;;;;9.60;5.20;;;;;;;3.02;100.00;100273.73;105563;1297;25455;-73
2023/02/14 12:18:40;;;;;;;9.90;5.40;;;;;;;2.93;100.00;100281.05;104929;1293;1002949;-72
2023/02/14 12:21:14;;;;;;;;;;;;;;;2.88;100.00;100282.32;104861;1297;1003778;-71
2023/02/14 12:23:55;;;;;;;8.60;4.30;;;;;;;2.81;100.00;100296.86;105499;1299;25284;-73
2023/02/14 12:26:58;;;;;;;9.00;4.90;;;;;;;2.76;100.00;100296.57;105692;1295;25452;-73
2023/02/14 12:29:34;;;;;;;13.00;6.00;;;;;;;2.74;100.00;100296.27;105689;1293;24026;-73
2023/02/14 12:32:06;;;;;;;12.70;6.40;;;;;;;2.78;100.00;100309.04;105804;1298;25280;-72
2023/02/14 12:34:34;;;;;;;10.10;5.80;;;;;;;2.80;100.00;100317.77;105737;1298;26027;-75
2023/02/14 12:37:23;;;;;;;11.50;6.10;;;;;;;2.79;100.00;100323.90;105423;1297;25442;-73
2023/02/14 14:36:10;;;;;;;8.10;4.10;;;;;;;1.54;100.00;100422.41;86247;1294;23033;31